Time;durP1;ratioP1;P1;durP2;ratioP2;P2;SDS_P1;SDS_P2;PMS_P1;PMS_P2;Temp;Humidity;BMP_temperature;BMP_pressure;BME280_temperature;BME280_humidity;BME280_pressure;Samples;Min_cycle;Max_cycle;Signal;HPM_P1;HPM_P2
2022/04/09 00:01:43;;;;;;;;;;;;;;;22.94;65.99;96010.73;575533;246;65371;-73
2022/04/09 00:04:10;;;;;;;;;;;;;;;22.93;65.99;96012.63;575545;246;67493;-71
2022/04/09 00:06:38;;;;;;;;;;;;;;;22.93;65.51;96001.91;575524;246;68485;-71
2022/04/09 00:09:05;;;;;;;;;;;;;;;22.93;65.55;96003.80;575539;246;64945;-71
2022/04/09 00:11:33;;;;;;;;;;;;;;;22.93;66.31;96001.13;575583;246;66196;-71
2022/04/09 00:14:00;;;;;;;;;;;;;;;22.92;65.63;95996.88;575480;246;66707;-71
2022/04/09 00:16:27;;;;;;;;;;;;;;;22.92;65.96;96019.09;575514;246;62993;-70
2022/04/09 00:18:55;;;;;;;;;;;;;;;22.93;66.16;96022.55;575530;246;66714;-71
2022/04/09 00:21:22;;;;;;;;;;;;;;;22.92;65.61;96023.66;577871;241;67319;-71
2022/04/09 00:23:50;;;;;;;;;;;;;;;22.92;66.07;96029.81;586179;242;63066;-71
2022/04/09 00:26:17;;;;;;;;;;;;;;;22.90;65.69;96020.50;586092;242;66474;-71
2022/04/09 00:28:45;;;;;;;;;;;;;;;22.91;65.27;96022.06;586103;242;68670;-71
2022/04/09 00:31:12;;;;;;;;;;;;;;;22.91;66.35;96016.70;586133;242;65558;-71
2022/04/09 00:33:40;;;;;;;;;;;;;;;22.90;66.33;96020.50;586098;242;68707;-73
2022/04/09 00:36:07;;;;;;;;;;;;;;;22.90;65.76;96017.81;586183;242;68830;-73
2022/04/09 00:38:35;;;;;;;;;;;;;;;22.88;66.02;96015.43;586127;242;66258;-71
2022/04/09 00:41:02;;;;;;;;;;;;;;;22.88;65.70;95999.36;586068;242;68887;-70
2022/04/09 00:43:30;;;;;;;;;;;;;;;22.89;65.50;95998.28;586126;242;68591;-71
2022/04/09 00:45:57;;;;;;;;;;;;;;;22.89;66.08;96002.82;586126;242;65297;-70
2022/04/09 00:48:25;;;;;;;;;;;;;;;22.87;65.20;96000.47;586172;242;66470;-71
2022/04/09 00:50:54;;;;;;;;;;;;;;;22.87;65.71;95997.79;586115;242;69206;-69
2022/04/09 00:53:22;;;;;;;;;;;;;;;22.87;66.17;96000.47;586083;242;65641;-70
2022/04/09 00:58:37;;;;;;;;;;;;;;;22.86;66.04;96011.48;586135;242;68914;-70
2022/04/09 01:01:05;;;;;;;;;;;;;;;22.85;66.09;96010.69;586121;242;65961;-70
2022/04/09 01:03:34;;;;;;;;;;;;;;;22.86;67.50;96016.84;586210;242;68806;-72
2022/04/09 01:06:02;;;;;;;;;;;;;;;22.83;66.53;96011.02;586062;242;69109;-71
2022/04/09 01:08:30;;;;;;;;;;;;;;;22.82;66.72;96012.09;586162;242;63383;-71
2022/04/09 01:10:58;;;;;;;;;;;;;;;22.82;66.28;96009.41;586158;242;69142;-71
2022/04/09 01:13:26;;;;;;;;;;;;;;;22.84;64.98;96011.80;586133;242;69005;-71
2022/04/09 01:15:54;;;;;;;;;;;;;;;22.85;66.36;96001.87;586186;242;65897;-72
2022/04/09 01:18:22;;;;;;;;;;;;;;;22.84;66.08;96011.80;586104;242;69272;-71
2022/04/09 01:20:55;;;;;;;;;;;;;;;22.82;66.04;95996.02;585476;242;49572;-70
2022/04/09 01:23:23;;;;;;;;;;;;;;;22.82;65.48;95987.20;575596;246;63059;-70
2022/04/09 01:25:50;;;;;;;;;;;;;;;22.81;65.39;96002.48;575573;246;68053;-70
2022/04/09 01:28:18;;;;;;;;;;;;;;;22.81;66.62;96002.48;575616;246;68337;-72
2022/04/09 01:30:46;;;;;;;;;;;;;;;22.80;65.36;95982.13;575533;246;63021;-72
2022/04/09 01:33:17;;;;;;;;;;;;;;;22.81;65.54;96002.48;575496;246;68694;-72
2022/04/09 01:35:45;;;;;;;;;;;;;;;22.80;65.35;95990.17;575579;246;68636;-71
2022/04/09 01:38:13;;;;;;;;;;;;;;;22.80;65.19;96000.89;575555;246;65451;-71
2022/04/09 01:40:41;;;;;;;;;;;;;;;22.80;65.21;95992.06;575584;246;66227;-71
2022/04/09 01:43:09;;;;;;;;;;;;;;;22.79;65.70;95982.46;575608;246;68534;-71
2022/04/09 01:45:37;;;;;;;;;;;;;;;22.79;65.74;95993.95;575522;246;66112;-71
2022/04/09 01:48:06;;;;;;;;;;;;;;;22.78;64.65;95981.67;575511;245;45716;-71
2022/04/09 01:50:34;;;;;;;;;;;;;;;22.78;65.24;95989.71;575547;246;66436;-71
2022/04/09 01:53:01;;;;;;;;;;;;;;;22.78;65.48;95975.50;575549;246;65182;-71
2022/04/09 01:55:29;;;;;;;;;;;;;;;22.78;65.84;95976.31;575541;246;68728;-71
2022/04/09 01:57:56;;;;;;;;;;;;;;;22.77;65.22;95979.30;575524;246;68623;-71
2022/04/09 02:00:26;;;;;;;;;;;;;;;22.78;65.62;95987.03;575561;245;44289;-71
2022/04/09 02:02:55;;;;;;;;;;;;;;;22.78;65.99;95987.03;575525;246;68852;-71
2022/04/09 02:05:24;;;;;;;;;;;;;;;22.77;65.60;95996.14;575542;246;68694;-71
2022/04/09 02:07:52;;;;;;;;;;;;;;;22.77;65.48;95990.79;575583;246;65632;-71
2022/04/09 02:10:20;;;;;;;;;;;;;;;22.78;64.88;95975.50;575533;246;66449;-71
2022/04/09 02:12:48;;;;;;;;;;;;;;;22.76;65.60;95975.83;575561;246;68423;-71
2022/04/09 02:15:16;;;;;;;;;;;;;;;22.76;65.74;95975.05;575544;246;63014;-71
2022/04/09 02:17:44;;;;;;;;;;;;;;;22.74;65.46;95975.34;575530;246;69249;-71
2022/04/09 02:20:13;;;;;;;;;;;;;;;22.75;66.18;95976.13;575569;246;66825;-71
2022/04/09 02:22:44;;;;;;;;;;;;;;;22.74;66.19;95986.05;583654;242;65870;-71
2022/04/09 02:25:13;;;;;;;;;;;;;;;22.73;64.95;95989.84;586108;242;68799;-71
2022/04/09 02:27:41;;;;;;;;;;;;;;;22.74;65.92;95996.77;586141;242;66537;-71
2022/04/09 02:30:10;;;;;;;;;;;;;;;22.74;66.11;95979.91;586144;242;65275;-69
2022/04/09 02:32:44;;;;;;;;;;;;;;;22.74;65.43;95994.08;586042;242;46102;-70
2022/04/09 02:35:13;;;;;;;;;;;;;;;22.72;65.89;95976.73;586146;242;68531;-70
2022/04/09 02:37:41;;;;;;;;;;;;;;;22.73;66.12;95989.05;586137;242;66353;-70
2022/04/09 02:40:09;;;;;;;;;;;;;;;22.72;66.12;95993.59;586138;242;67114;-70
2022/04/09 02:42:37;;;;;;;;;;;;;;;22.72;65.67;95995.48;586136;242;69110;-70
2022/04/09 02:45:06;;;;;;;;;;;;;;;22.72;65.45;95982.88;586105;242;65384;-70
2022/04/09 02:47:34;;;;;;;;;;;;;;;22.72;66.21;95982.88;586166;242;69094;-69
2022/04/09 02:50:02;;;;;;;;;;;;;;;22.72;66.46;95987.45;586111;242;66106;-69
2022/04/09 02:52:34;;;;;;;;;;;;;;;22.71;65.51;95975.95;586145;242;63205;-69
2022/04/09 02:55:02;;;;;;;;;;;;;;;22.71;66.04;95970.59;586129;242;68987;-70
2022/04/09 02:57:31;;;;;;;;;;;;;;;22.72;65.87;95976.73;586134;242;68520;-70
2022/04/09 02:59:58;;;;;;;;;;;;;;;22.71;66.08;95978.63;586138;242;65467;-70
2022/04/09 03:02:26;;;;;;;;;;;;;;;22.71;65.49;95970.59;586193;242;66084;-70
2022/04/09 03:04:55;;;;;;;;;;;;;;;22.69;65.16;95975.46;586108;242;69063;-70
2022/04/09 03:07:23;;;;;;;;;;;;;;;22.69;65.36;95972.78;586146;242;65186;-70
2022/04/09 03:09:51;;;;;;;;;;;;;;;22.70;66.71;95990.45;586144;242;66467;-70
2022/04/09 03:12:18;;;;;;;;;;;;;;;22.69;66.07;95988.07;586129;242;66646;-70
2022/04/09 03:14:46;;;;;;;;;;;;;;;22.68;65.87;95987.28;586186;242;63294;-70
2022/04/09 03:17:14;;;;;;;;;;;;;;;22.68;66.43;95987.28;586106;242;69174;-70
2022/04/09 03:19:41;;;;;;;;;;;;;;;22.68;66.10;95981.92;586135;242;68731;-70
2022/04/09 03:22:10;;;;;;;;;;;;;;;22.68;65.18;95971.21;580293;242;62652;-70
2022/04/09 03:24:38;;;;;;;;;;;;;;;22.67;65.88;95964.29;575539;246;66276;-70
2022/04/09 03:27:06;;;;;;;;;;;;;;;22.68;65.41;95967.75;575585;246;68800;-70
2022/04/09 03:29:34;;;;;;;;;;;;;;;22.69;65.27;95961.28;575509;246;65952;-70
2022/04/09 03:32:03;;;;;;;;;;;;;;;22.69;65.11;95956.72;575537;246;66192;-70
2022/04/09 03:34:31;;;;;;;;;;;;;;;22.68;65.26;95962.39;575466;246;69766;-70
2022/04/09 03:37:01;;;;;;;;;;;;;;;22.66;65.97;95956.55;575599;244;42739;-70
2022/04/09 03:39:29;;;;;;;;;;;;;;;22.66;66.92;95954.66;575566;246;69233;-70
2022/04/09 03:41:56;;;;;;;;;;;;;;;22.65;65.72;95957.66;575537;246;68723;-70
2022/04/09 03:44:24;;;;;;;;;;;;;;;22.64;65.73;95959.52;575482;246;62661;-70
2022/04/09 03:46:59;;;;;;;;;;;;;;;22.67;64.85;95972.32;575526;246;69211;-70
2022/04/09 03:49:29;;;;;;;;;;;;;;;22.67;66.04;95972.32;575533;246;66505;-70
2022/04/09 03:51:57;;;;;;;;;;;;;;;22.65;65.97;95976.41;575537;246;65658;-70
2022/04/09 03:54:30;;;;;;;;;;;;;;;22.64;65.96;95962.20;575541;246;68555;-70
2022/04/09 03:56:58;;;;;;;;;;;;;;;22.64;66.15;95962.20;575501;246;69140;-70
2022/04/09 03:59:27;;;;;;;;;;;;;;;22.63;65.66;95975.91;575318;245;42988;-70
2022/04/09 04:01:55;;;;;;;;;;;;;;;22.64;65.86;95967.55;575524;246;66632;-70
2022/04/09 04:04:22;;;;;;;;;;;;;;;22.62;65.98;95964.41;575529;246;68660;-70
2022/04/09 04:06:51;;;;;;;;;;;;;;;22.62;65.60;95951.02;575565;246;62866;-72
2022/04/09 04:09:19;;;;;;;;;;;;;;;22.63;65.91;95957.95;575475;246;68707;-72
2022/04/09 04:11:48;;;;;;;;;;;;;;;22.61;66.16;95950.21;575554;245;45450;-72
2022/04/09 04:14:16;;;;;;;;;;;;;;;22.62;66.07;95948.34;575531;246;62672;-72
2022/04/09 04:16:44;;;;;;;;;;;;;;;22.60;65.67;95948.64;575535;246;69198;-72
2022/04/09 04:19:12;;;;;;;;;;;;;;;22.61;66.01;95949.42;575514;246;68612;-72
2022/04/09 04:21:41;;;;;;;;;;;;;;;22.60;65.19;95954.00;575504;245;65446;-72
2022/04/09 04:24:09;;;;;;;;;;;;;;;22.60;65.87;95953.21;575517;246;69191;-71
2022/04/09 04:26:37;;;;;;;;;;;;;;;22.60;65.97;95961.24;575519;246;68786;-72
2022/04/09 04:29:06;;;;;;;;;;;;;;;22.60;66.23;95961.24;575456;245;43129;-72
2022/04/09 04:31:34;;;;;;;;;;;;;;;22.59;64.82;95960.46;575499;246;69248;-72
2022/04/09 04:34:02;;;;;;;;;;;;;;;22.60;64.48;95950.53;575570;246;66153;-72
2022/04/09 04:36:31;;;;;;;;;;;;;;;22.61;64.80;95950.21;575557;245;45374;-71
2022/04/09 04:38:59;;;;;;;;;;;;;;;22.60;65.36;95947.86;575519;246;66482;-71
2022/04/09 04:41:27;;;;;;;;;;;;;;;22.60;65.08;95958.56;575566;246;68360;-71
2022/04/09 04:43:54;;;;;;;;;;;;;;;22.60;65.68;95947.86;575499;246;66495;-72
2022/04/09 04:46:23;;;;;;;;;;;;;;;22.59;65.79;95952.42;575553;245;45883;-72
2022/04/09 04:48:53;;;;;;;;;;;;;;;22.58;66.29;95948.15;575402;245;51504;-71
2022/04/09 04:51:22;;;;;;;;;;;;;;;22.57;65.56;95951.94;575565;244;43644;-73
2022/04/09 04:53:50;;;;;;;;;;;;;;;22.57;65.99;95951.15;575519;246;66437;-74
2022/04/09 04:56:19;;;;;;;;;;;;;;;22.57;65.00;95956.50;575509;246;68948;-74
2022/04/09 04:58:48;;;;;;;;;;;;;;;22.57;66.05;95951.15;575541;245;42817;-73
2022/04/09 05:01:16;;;;;;;;;;;;;;;22.57;66.77;95956.50;575548;246;69232;-74
2022/04/09 05:03:46;;;;;;;;;;;;;;;22.56;66.66;95957.58;575536;245;46042;-72
2022/04/09 05:06:15;;;;;;;;;;;;;;;22.56;65.94;95949.55;575331;245;46569;-73
2022/04/09 05:08:43;;;;;;;;;;;;;;;22.55;65.84;95947.98;575508;246;69024;-73
2022/04/09 05:11:18;;;;;;;;;;;;;;;22.54;65.73;95959.80;575508;245;45929;-74
2022/04/09 05:13:46;;;;;;;;;;;;;;;22.54;66.46;95944.52;575517;246;65506;-70
2022/04/09 05:16:14;;;;;;;;;;;;;;;22.55;66.11;95950.66;575458;246;66432;-70
2022/04/09 05:18:43;;;;;;;;;;;;;;;22.53;65.32;95953.63;575468;245;46423;-70
2022/04/09 05:21:11;;;;;;;;;;;;;;;22.53;65.92;95958.98;576982;242;65980;-71
2022/04/09 05:23:39;;;;;;;;;;;;;;;22.52;66.12;95957.41;586089;242;66244;-71
2022/04/09 05:26:07;;;;;;;;;;;;;;;22.53;66.87;95952.84;586157;242;68831;-71
2022/04/09 05:28:34;;;;;;;;;;;;;;;22.53;66.76;95958.20;586114;242;63012;-71
2022/04/09 05:31:03;;;;;;;;;;;;;;;22.52;65.55;95946.70;586173;242;68402;-71
2022/04/09 05:33:30;;;;;;;;;;;;;;;22.52;66.48;95961.98;586110;242;66254;-71
2022/04/09 05:35:59;;;;;;;;;;;;;;;22.53;65.21;95952.84;586133;242;66000;-70
2022/04/09 05:38:27;;;;;;;;;;;;;;;22.53;64.92;95947.48;586089;242;68879;-70
2022/04/09 05:40:55;;;;;;;;;;;;;;;22.52;66.64;95944.03;586133;242;68340;-70
2022/04/09 05:43:23;;;;;;;;;;;;;;;22.53;67.00;95947.48;586131;242;65257;-70
2022/04/09 05:45:53;;;;;;;;;;;;;;;22.52;66.12;95951.27;586069;242;45831;-70
2022/04/09 05:48:22;;;;;;;;;;;;;;;22.50;65.44;95943.53;585981;242;46664;-70
2022/04/09 05:50:51;;;;;;;;;;;;;;;22.51;66.29;95936.31;586070;242;43602;-70
2022/04/09 05:53:19;;;;;;;;;;;;;;;22.50;66.79;95937.39;586008;242;69062;-71
2022/04/09 05:55:47;;;;;;;;;;;;;;;22.50;66.64;95927.47;586146;242;68373;-70
2022/04/09 05:58:15;;;;;;;;;;;;;;;22.50;66.62;95921.33;586129;242;65878;-73
2022/04/09 06:00:43;;;;;;;;;;;;;;;22.49;67.15;95927.80;586091;242;69259;-73
2022/04/09 06:03:20;;;;;;;;;;;;;;;22.49;66.06;95925.12;585950;242;46151;-67
2022/04/09 06:05:51;;;;;;;;;;;;;;;22.50;67.08;95910.63;585461;242;63376;-77
2022/04/09 06:08:20;;;;;;;;;;;;;;;22.49;65.56;95909.05;590712;239;50704;-77
2022/04/09 06:10:48;;;;;;;;;;;;;;;22.49;67.16;95909.84;592419;239;68943;-76
2022/04/09 06:13:16;;;;;;;;;;;;;;;22.50;66.84;95907.95;592325;239;65409;-71
2022/04/09 06:15:51;;;;;;;;;;;;;;;22.51;66.93;95896.16;592394;239;69306;-77
2022/04/09 06:18:20;;;;;;;;;;;;;;;22.51;67.26;95901.52;592411;239;45649;-76
2022/04/09 06:20:48;;;;;;;;;;;;;;;22.51;66.81;95898.84;592530;239;62628;-77
2022/04/09 06:23:17;;;;;;;;;;;;;;;22.51;67.36;95902.30;592090;239;68931;-77
2022/04/09 06:25:44;;;;;;;;;;;;;;;22.52;68.62;95898.51;592401;239;66458;-77
2022/04/09 06:28:13;;;;;;;;;;;;;;;22.52;66.94;95901.19;592485;239;65845;-77
2022/04/09 06:30:42;;;;;;;;;;;;;;;22.52;67.75;95897.73;592521;239;69157;-77
2022/04/09 06:33:11;;;;;;;;;;;;;;;22.52;68.01;95892.37;592118;239;48566;-77
2022/04/09 06:35:40;;;;;;;;;;;;;;;22.54;67.62;95895.54;592499;239;65516;-75
2022/04/09 06:38:09;;;;;;;;;;;;;;;22.54;66.53;95895.54;592406;239;45511;-76
2022/04/09 06:40:37;;;;;;;;;;;;;;;22.53;66.68;95883.23;592457;239;68940;-76
2022/04/09 06:43:05;;;;;;;;;;;;;;;22.53;65.55;95875.20;592457;239;65160;-72
2022/04/09 06:45:46;;;;;;;;;;;;;;;22.53;66.63;95875.98;589308;239;50094;-75
2022/04/09 06:48:22;;;;;;;;;;;;;;;22.53;66.26;95886.69;592224;239;45884;-75
2022/04/09 06:50:51;;;;;;;;;;;;;;;22.53;65.06;95884.02;591807;239;42726;-75
2022/04/09 06:53:19;;;;;;;;;;;;;;;22.53;65.18;95881.34;592467;239;69345;-75
2022/04/09 06:55:47;;;;;;;;;;;;;;;22.54;65.43;95882.94;592371;239;66498;-75
2022/04/09 06:58:15;;;;;;;;;;;;;;;22.54;64.98;95880.26;592456;239;65286;-75
2022/04/09 07:00:44;;;;;;;;;;;;;;;22.55;66.02;95873.02;592484;239;66456;-75
2022/04/09 07:03:13;;;;;;;;;;;;;;;22.54;65.82;95876.80;592448;239;68515;-76
2022/04/09 07:05:44;;;;;;;;;;;;;;;22.54;66.42;95877.58;592437;239;63171;-75
2022/04/09 07:08:11;;;;;;;;;;;;;;;22.55;65.83;95873.80;592469;239;68795;-75
2022/04/09 07:10:39;;;;;;;;;;;;;;;22.55;65.91;95870.33;592424;239;66183;-75
2022/04/09 07:13:06;;;;;;;;;;;;;;;22.56;65.90;95867.36;592482;239;63014;-74
2022/04/09 07:15:34;;;;;;;;;;;;;;;22.57;65.98;95868.93;592499;239;68828;-74
2022/04/09 07:18:02;;;;;;;;;;;;;;;22.57;65.65;95868.14;592417;239;69138;-76
2022/04/09 07:20:30;;;;;;;;;;;;;;;22.59;65.86;95868.63;592463;239;63131;-75
2022/04/09 07:22:58;;;;;;;;;;;;;;;22.59;66.19;95860.59;588740;239;66592;-75
2022/04/09 07:25:25;;;;;;;;;;;;;;;22.58;66.47;95859.78;588352;241;66464;-76
2022/04/09 07:27:53;;;;;;;;;;;;;;;22.58;66.77;95853.65;588320;241;63040;-75
2022/04/09 07:30:21;;;;;;;;;;;;;;;22.59;66.50;95845.32;588251;241;68729;-76
2022/04/09 07:32:49;;;;;;;;;;;;;;;22.61;66.29;95855.70;587223;241;66691;-75
2022/04/09 07:35:16;;;;;;;;;;;;;;;22.60;66.47;95846.10;578985;245;65533;-76
2022/04/09 07:37:46;;;;;;;;;;;;;;;22.63;66.36;95850.05;579016;245;68418;-75
2022/04/09 07:40:15;;;;;;;;;;;;;;;22.62;66.10;95843.91;579015;242;70987;-76
2022/04/09 07:42:44;;;;;;;;;;;;;;;22.63;66.86;95836.66;579112;245;65603;-75
2022/04/09 07:45:12;;;;;;;;;;;;;;;22.63;66.66;95848.16;579029;245;66738;-76
2022/04/09 07:47:40;;;;;;;;;;;;;;;22.64;66.09;95838.23;579151;245;66508;-76
2022/04/09 07:50:10;;;;;;;;;;;;;;;22.64;65.63;95838.23;579026;245;65449;-76
2022/04/09 07:52:45;;;;;;;;;;;;;;;22.64;66.46;95841.69;579067;245;66715;-68
2022/04/09 07:55:18;;;;;;;;;;;;;;;22.65;65.57;95834.47;579195;245;66497;-75
2022/04/09 07:57:43;;;;;;;;;;;;;;;22.67;64.74;95841.10;579015;245;65729;-75
2022/04/09 08:00:12;;;;;;;;;;;;;;;22.68;66.62;95837.31;579048;243;68672;-75
2022/04/09 08:02:39;;;;;;;;;;;;;;;22.65;66.44;95832.58;579084;245;68594;-75
2022/04/09 08:05:09;;;;;;;;;;;;;;;22.67;66.47;95835.74;579028;245;65526;-74
2022/04/09 08:07:36;;;;;;;;;;;;;;;22.68;65.02;95831.95;579052;245;68696;-72
2022/04/09 08:10:03;;;;;;;;;;;;;;;22.71;65.54;95828.66;579088;245;68574;-72
2022/04/09 08:12:31;;;;;;;;;;;;;;;22.73;64.11;95829.14;579123;245;65383;-72
2022/04/09 08:14:59;;;;;;;;;;;;;;;22.74;62.94;95824.56;579113;245;68685;-72
2022/04/09 08:17:27;;;;;;;;;;;;;;;22.76;65.66;95822.38;579104;245;68556;-73
2022/04/09 08:19:55;;;;;;;;;;;;;;;22.76;65.09;95817.02;578991;245;63916;-73
2022/04/09 08:22:24;;;;;;;;;;;;;;;22.76;62.41;95817.02;583562;242;68694;-63
2022/04/09 08:24:52;;;;;;;;;;;;;;;22.78;65.10;95815.61;586059;242;68467;-73
2022/04/09 08:27:19;;;;;;;;;;;;;;;22.78;64.76;95810.25;586038;242;65254;-72
2022/04/09 08:29:47;;;;;;;;;;;;;;;22.79;66.50;95813.72;586052;242;68845;-72
2022/04/09 08:32:15;;;;;;;;;;;;;;;22.79;66.41;95805.68;586044;242;67070;-72
2022/04/09 08:34:42;;;;;;;;;;;;;;;22.78;66.37;95812.12;584878;242;66404;-73
2022/04/09 08:37:10;;;;;;;;;;;;;;;22.77;66.29;95803.30;586075;242;68891;-70
2022/04/09 08:39:38;;;;;;;;;;;;;;;22.79;66.78;95811.82;586130;242;68851;-72
2022/04/09 08:42:05;;;;;;;;;;;;;;;22.78;66.93;95810.25;585963;242;65391;-72
2022/04/09 08:44:38;;;;;;;;;;;;;;;22.79;66.07;95809.14;586075;242;68652;-72
2022/04/09 08:47:02;;;;;;;;;;;;;;;22.79;66.60;95801.11;585890;242;66527;-73
2022/04/09 08:49:31;;;;;;;;;;;;;;;22.79;66.53;95801.11;586013;242;65415;-73
2022/04/09 08:51:59;;;;;;;;;;;;;;;22.79;66.42;95795.75;585849;242;67152;-72
2022/04/09 08:54:27;;;;;;;;;;;;;;;22.80;66.33;95796.53;586082;242;66451;-73
2022/04/09 08:56:54;;;;;;;;;;;;;;;22.80;67.27;95797.31;585979;242;65403;-73
2022/04/09 08:59:21;;;;;;;;;;;;;;;22.81;66.65;95790.88;586098;242;69069;-73
2022/04/09 09:01:49;;;;;;;;;;;;;;;22.81;66.79;95774.02;586117;242;68556;-72
2022/04/09 09:04:18;;;;;;;;;;;;;;;22.83;66.58;95785.19;585999;242;65686;-73
2022/04/09 09:06:46;;;;;;;;;;;;;;;22.83;67.21;95780.64;586004;242;67535;-69
2022/04/09 09:09:29;;;;;;;;;;;;;;;22.81;66.38;95782.84;586089;242;68595;-72
2022/04/09 09:11:59;;;;;;;;;;;;;;;22.82;63.57;95783.63;586119;242;65965;-72
2022/04/09 09:14:28;;;;;;;;;;;;;;;22.82;65.58;95776.38;586164;242;68912;-71
2022/04/09 09:16:58;;;;;;;;;;;;;;;22.83;66.37;95767.25;579324;242;66508;-71
2022/04/09 09:19:45;;;;;;;;;;;;;;;22.82;66.72;95773.69;578493;242;66229;-70
2022/04/09 09:22:13;;;;;;;;;;;;;;;22.83;65.51;95779.83;586075;242;68708;-71
2022/04/09 09:24:40;;;;;;;;;;;;;;;22.83;66.65;95759.22;586154;242;68538;-71
2022/04/09 09:27:08;;;;;;;;;;;;;;;22.84;65.79;95762.68;586154;242;63077;-71
2022/04/09 09:29:36;;;;;;;;;;;;;;;22.84;65.48;95768.03;586166;242;66513;-71
2022/04/09 09:32:07;;;;;;;;;;;;;;;22.83;64.66;95753.86;586178;242;68786;-71
2022/04/09 09:34:35;;;;;;;;;;;;;;;22.85;65.84;95755.42;586095;242;63318;-71
2022/04/09 09:37:03;;;;;;;;;;;;;;;22.86;65.64;95756.99;586128;242;68792;-71
2022/04/09 09:39:34;;;;;;;;;;;;;;;22.86;65.92;95756.99;586191;242;67930;-71
2022/04/09 09:42:05;;;;;;;;;;;;;;;22.85;65.84;95763.47;586076;242;65529;-70
2022/04/09 09:44:34;;;;;;;;;;;;;;;22.86;66.35;95755.09;586010;242;68585;-70
2022/04/09 09:47:07;;;;;;;;;;;;;;;22.85;66.17;95744.71;586133;242;68783;-70
2022/04/09 09:49:41;;;;;;;;;;;;;;;22.85;64.96;95740.14;586158;242;63297;-71
2022/04/09 09:52:09;;;;;;;;;;;;;;;22.84;64.73;95727.86;586172;242;68562;-71
2022/04/09 09:54:55;;;;;;;;;;;;;;;22.85;66.01;95734.78;586169;242;68525;-71
2022/04/09 09:57:30;;;;;;;;;;;;;;;22.85;65.63;95734.00;586132;242;65304;-70
2022/04/09 10:00:01;;;;;;;;;;;;;;;22.85;66.16;95734.78;586164;242;68377;-70
2022/04/09 10:02:31;;;;;;;;;;;;;;;22.86;65.39;95732.88;586064;242;47449;-71
2022/04/09 10:05:00;;;;;;;;;;;;;;;22.86;66.45;95719.48;586153;242;65404;-71
2022/04/09 10:07:28;;;;;;;;;;;;;;;22.88;65.31;95717.30;586123;242;66212;-71
2022/04/09 10:09:55;;;;;;;;;;;;;;;22.87;65.74;95721.09;586129;242;68505;-71
2022/04/09 10:12:24;;;;;;;;;;;;;;;22.87;66.26;95715.73;586150;242;64951;-70
2022/04/09 10:14:53;;;;;;;;;;;;;;;22.88;65.72;95717.30;586156;242;66743;-70
2022/04/09 10:17:21;;;;;;;;;;;;;;;22.86;65.74;95712.23;586143;242;68625;-70
2022/04/09 10:19:55;;;;;;;;;;;;;;;22.86;65.47;95708.78;586117;242;63272;-70
2022/04/09 10:22:30;;;;;;;;;;;;;;;22.87;65.09;95710.37;586120;242;66747;-70
2022/04/09 10:24:59;;;;;;;;;;;;;;;22.87;65.40;95702.34;586174;242;68586;-72
2022/04/09 10:27:34;;;;;;;;;;;;;;;22.88;64.89;95711.94;586127;242;63210;-70
2022/04/09 10:30:07;;;;;;;;;;;;;;;22.87;65.80;95711.16;586158;242;68904;-71
2022/04/09 10:32:52;;;;;;;;;;;;;;;22.88;65.25;95706.58;585874;242;67521;-71
2022/04/09 10:35:30;;;;;;;;;;;;;;;22.89;64.95;95708.14;586137;242;65648;-70
2022/04/09 10:38:16;;;;;;;;;;;;;;;22.88;65.56;95703.90;586112;242;68762;-71
2022/04/09 10:40:45;;;;;;;;;;;;;;;22.87;63.92;95715.73;586112;242;68339;-70
2022/04/09 10:43:27;;;;;;;;;;;;;;;22.87;65.74;95708.48;586172;242;65061;-70
2022/04/09 10:46:11;;;;;;;;;;;;;;;22.87;65.42;95705.80;585543;242;68780;-71
2022/04/09 10:48:34;;;;;;;;;;;;;;;22.87;66.19;95697.77;585731;242;68586;-71
2022/04/09 10:51:06;;;;;;;;;;;;;;;22.87;65.39;95692.41;586128;242;63952;-71
2022/04/09 10:53:36;;;;;;;;;;;;;;;22.87;65.59;95696.98;586079;242;68936;-71
2022/04/09 10:56:14;;;;;;;;;;;;;;;22.87;65.47;95708.48;586100;242;68341;-71
2022/04/09 10:59:00;;;;;;;;;;;;;;;22.87;65.75;95696.98;582391;242;62668;-70
2022/04/09 11:01:51;;;;;;;;;;;;;;;22.88;65.86;95701.22;586173;242;68763;-70
2022/04/09 11:04:29;;;;;;;;;;;;;;;22.87;65.64;95705.02;586155;242;68890;-71
2022/04/09 11:07:08;;;;;;;;;;;;;;;22.87;65.00;95694.30;586101;242;63106;-71
2022/04/09 11:09:43;;;;;;;;;;;;;;;22.87;65.72;95705.02;586132;242;68660;-71
2022/04/09 11:12:11;;;;;;;;;;;;;;;22.88;65.88;95709.26;586081;242;66473;-70
2022/04/09 11:14:42;;;;;;;;;;;;;;;22.88;65.04;95711.94;586115;242;65549;-70
2022/04/09 11:17:16;;;;;;;;;;;;;;;22.87;64.64;95711.16;586129;242;68883;-70
2022/04/09 11:19:44;;;;;;;;;;;;;;;22.88;64.81;95717.30;586155;242;68441;-70
2022/04/09 11:22:11;;;;;;;;;;;;;;;22.87;64.75;95719.19;580185;242;63908;-70
2022/04/09 11:24:39;;;;;;;;;;;;;;;22.88;64.34;95717.30;575524;246;68350;-70
2022/04/09 11:27:07;;;;;;;;;;;;;;;22.88;64.55;95703.90;575502;246;66464;-70
2022/04/09 11:29:40;;;;;;;;;;;;;;;22.89;64.01;95716.99;575526;246;65755;-70
2022/04/09 11:32:09;;;;;;;;;;;;;;;22.88;64.22;95709.26;575497;246;68985;-70
2022/04/09 11:34:53;;;;;;;;;;;;;;;22.89;64.53;95702.78;575408;245;66561;-70
2022/04/09 11:37:21;;;;;;;;;;;;;;;22.89;64.44;95700.92;575525;246;62896;-73
2022/04/09 11:39:50;;;;;;;;;;;;;;;22.89;64.85;95697.43;575507;246;68936;-72
2022/04/09 11:42:18;;;;;;;;;;;;;;;22.89;64.41;95692.07;575526;246;68409;-72
2022/04/09 11:44:46;;;;;;;;;;;;;;;22.89;63.92;95687.53;575510;246;63012;-73
2022/04/09 11:47:16;;;;;;;;;;;;;;;22.90;64.74;95677.59;575539;246;68705;-73
2022/04/09 11:49:44;;;;;;;;;;;;;;;22.89;64.56;95678.67;575559;246;66695;-73
2022/04/09 11:52:12;;;;;;;;;;;;;;;22.88;65.50;95672.53;575546;246;65675;-73
2022/04/09 11:54:40;;;;;;;;;;;;;;;22.90;65.36;95666.88;575520;246;66658;-72
2022/04/09 11:57:10;;;;;;;;;;;;;;;22.88;64.85;95659.14;575532;246;68777;-72
2022/04/09 11:59:40;;;;;;;;;;;;;;;22.90;65.14;95672.23;575283;246;46510;-72
2022/04/09 12:02:21;;;;;;;;;;;;;;;22.90;64.99;95656.95;575527;246;68750;-73
2022/04/09 12:04:50;;;;;;;;;;;;;;;22.90;65.58;95662.30;575534;246;66518;-73
2022/04/09 12:07:18;;;;;;;;;;;;;;;22.90;65.06;95661.52;575531;246;63330;-73
2022/04/09 12:09:49;;;;;;;;;;;;;;;22.90;64.53;95651.59;575528;246;68724;-73
2022/04/09 12:12:19;;;;;;;;;;;;;;;22.91;64.73;95649.69;575577;246;68304;-73
2022/04/09 12:14:53;;;;;;;;;;;;;;;22.90;64.28;95645.45;575433;245;63036;-73
2022/04/09 12:17:24;;;;;;;;;;;;;;;22.90;64.53;95645.45;575558;246;66582;-73
2022/04/09 12:19:52;;;;;;;;;;;;;;;22.92;64.75;95652.06;575503;246;68962;-73
2022/04/09 12:22:24;;;;;;;;;;;;;;;22.91;65.13;95641.66;575487;242;65408;-73
2022/04/09 12:24:53;;;;;;;;;;;;;;;22.90;64.96;95635.52;575524;246;68731;-73
2022/04/09 12:27:22;;;;;;;;;;;;;;;22.90;65.71;95634.73;575513;246;68556;-72
2022/04/09 12:29:51;;;;;;;;;;;;;;;22.89;65.94;95633.95;575518;246;63097;-72
2022/04/09 12:32:23;;;;;;;;;;;;;;;22.90;65.86;95632.05;575581;246;68874;-72
2022/04/09 12:34:56;;;;;;;;;;;;;;;22.90;65.27;95624.02;575467;245;66448;-72
2022/04/09 12:37:24;;;;;;;;;;;;;;;22.90;65.52;95629.38;575541;246;65512;-73
2022/04/09 12:39:58;;;;;;;;;;;;;;;22.90;65.76;95619.44;575523;246;68559;-72
2022/04/09 12:42:31;;;;;;;;;;;;;;;22.91;64.82;95609.51;575256;245;68640;-72
2022/04/09 12:45:20;;;;;;;;;;;;;;;22.90;65.79;95600.69;575545;246;62741;-72
2022/04/09 12:48:01;;;;;;;;;;;;;;;22.92;65.71;95597.70;575582;246;69034;-72
2022/04/09 12:50:30;;;;;;;;;;;;;;;22.90;65.55;95597.23;575556;246;68775;-72
2022/04/09 12:52:58;;;;;;;;;;;;;;;22.90;66.04;95600.69;575522;246;65390;-72
2022/04/09 12:55:26;;;;;;;;;;;;;;;22.90;65.76;95597.23;575536;246;68695;-72
2022/04/09 12:57:55;;;;;;;;;;;;;;;22.91;65.25;95606.83;575538;246;68506;-72
2022/04/09 13:00:23;;;;;;;;;;;;;;;22.91;65.32;95598.80;575522;246;63124;-73
2022/04/09 13:02:53;;;;;;;;;;;;;;;22.90;65.68;95605.27;575616;246;68780;-73